createdAt,value
2022-09-05T01:10:34.828Z,12.72
2022-09-05T01:13:44.407Z,12.68
2022-09-05T01:16:59.397Z,12.77
2022-09-05T01:23:41.149Z,12.70
2022-09-05T01:26:35.899Z,12.42
2022-09-05T01:32:38.335Z,12.33
2022-09-05T01:35:32.939Z,12.47
2022-09-05T01:38:38.841Z,12.40
2022-09-05T01:41:24.273Z,12.27
2022-09-05T01:44:36.093Z,12.44
2022-09-05T01:47:29.404Z,12.21
2022-09-05T01:50:37.648Z,12.17
2022-09-05T01:53:31.696Z,11.90
2022-09-05T01:56:35.498Z,12.11
2022-09-05T01:59:22.614Z,11.98
2022-09-05T02:02:18.948Z,11.80
2022-09-05T02:04:52.682Z,11.83
2022-09-05T02:08:02.082Z,11.67
2022-09-05T02:11:06.784Z,11.86
2022-09-05T02:13:36.722Z,11.82
2022-09-05T02:16:19.315Z,11.96
2022-09-05T02:19:14.971Z,11.89
2022-09-05T02:21:58.940Z,11.58
2022-09-05T02:24:45.944Z,11.67
2022-09-05T02:28:03.694Z,11.79
2022-09-05T02:30:22.968Z,11.73
2022-09-05T02:33:11.670Z,11.48
2022-09-05T02:36:02.324Z,11.53
2022-09-05T02:42:40.455Z,11.52
2022-09-05T02:45:14.650Z,11.41
2022-09-05T02:45:25.758Z,11.25
2022-09-05T02:48:27.918Z,11.25
2022-09-05T02:57:28.265Z,11.16
2022-09-05T02:57:36.372Z,11.15
2022-09-05T02:58:07.008Z,11.15
2022-09-05T03:00:52.080Z,11.13
2022-09-05T03:03:39.240Z,11.08
2022-09-05T03:06:34.939Z,11.10
2022-09-05T03:09:56.076Z,10.92
2022-09-05T03:13:09.238Z,10.95
2022-09-05T03:16:06.922Z,10.84
2022-09-05T03:19:29.881Z,11.04
2022-09-05T03:22:37.734Z,10.90
2022-09-05T03:25:41.552Z,10.84
2022-09-05T03:28:30.275Z,10.71
2022-09-05T03:31:49.217Z,10.80
2022-09-05T03:34:53.664Z,10.77
2022-09-05T03:37:49.337Z,10.80
2022-09-05T03:40:38.074Z,10.62
2022-09-05T03:43:42.164Z,10.67
2022-09-05T03:46:44.798Z,10.42
2022-09-05T03:54:02.899Z,10.57
2022-09-05T03:57:16.383Z,10.46
2022-09-05T03:57:20.723Z,10.52
2022-09-05T03:58:57.075Z,10.42
2022-09-05T04:06:36.128Z,10.52
2022-09-05T04:08:09.387Z,10.55
2022-09-05T04:08:31.175Z,10.55
2022-09-05T04:10:36.321Z,10.32
2022-09-05T04:13:20.088Z,10.49
2022-09-05T04:16:02.363Z,10.62
2022-09-05T04:18:49.214Z,10.70
2022-09-05T04:21:24.654Z,10.70
2022-09-05T04:24:00.443Z,11.78
2022-09-05T04:26:49.432Z,14.22
2022-09-05T04:30:01.423Z,16.59
2022-09-05T04:33:01.273Z,18.00
2022-09-05T04:36:00.935Z,18.96
2022-09-05T04:38:43.013Z,20.05
2022-09-05T04:41:36.564Z,21.23
2022-09-05T04:44:19.991Z,22.29
2022-09-05T04:46:50.194Z,23.22
2022-09-05T04:49:28.144Z,23.99
2022-09-05T04:52:32.583Z,24.46
2022-09-05T04:55:23.940Z,24.62
2022-09-05T04:57:53.789Z,25.53
2022-09-05T05:06:03.474Z,26.25
2022-09-05T05:06:13.325Z,27.47
2022-09-05T05:06:45.931Z,26.98
2022-09-05T05:09:44.557Z,27.73
2022-09-05T05:18:02.334Z,28.29
2022-09-05T05:18:15.973Z,28.86
2022-09-05T05:19:18.568Z,30.91
2022-09-05T05:21:58.159Z,30.82
2022-09-05T05:24:35.502Z,30.71
2022-09-05T05:27:27.889Z,32.52
2022-09-05T05:30:09.027Z,32.70
2022-09-05T05:32:45.958Z,32.81
2022-09-05T05:35:18.618Z,32.76
2022-09-05T05:38:34.232Z,34.03
2022-09-05T05:41:16.262Z,34.91
2022-09-05T05:43:46.754Z,34.56
2022-09-05T05:46:26.786Z,35.70
2022-09-05T05:49:24.190Z,35.74
2022-09-05T05:52:14.099Z,35.67
2022-09-05T05:55:50.530Z,36.57
2022-09-05T05:58:32.813Z,37.54
2022-09-05T06:01:37.682Z,36.37
2022-09-05T06:05:04.207Z,36.77
2022-09-05T06:12:53.585Z,35.99
2022-09-05T06:15:01.919Z,37.29
2022-09-05T06:15:08.947Z,36.93
2022-09-05T06:18:34.255Z,38.71
2022-09-05T06:22:10.650Z,37.02
2022-09-05T06:25:31.315Z,36.55
2022-09-05T06:28:19.116Z,37.24
2022-09-05T06:31:29.771Z,37.47
2022-09-05T06:34:36.982Z,38.79
2022-09-05T06:37:38.736Z,40.11
2022-09-05T06:40:33.205Z,38.78
2022-09-05T06:43:27.297Z,39.03
2022-09-05T06:46:55.211Z,39.03
2022-09-05T06:49:45.911Z,39.16
2022-09-05T06:52:30.191Z,38.67
2022-09-05T06:55:16.135Z,37.35
2022-09-05T06:58:29.102Z,37.03
2022-09-05T07:01:01.932Z,37.16
2022-09-05T07:05:23.618Z,37.76
2022-09-05T07:07:24.276Z,36.77
2022-09-05T07:10:12.313Z,34.97
2022-09-05T07:13:11.390Z,33.69
2022-09-05T07:16:39.137Z,33.16
2022-09-05T07:19:43.396Z,33.13
2022-09-05T07:22:46.594Z,33.33
2022-09-05T07:25:20.094Z,34.92
2022-09-05T07:28:25.730Z,34.97
2022-09-05T07:30:59.277Z,34.50
2022-09-05T07:33:31.535Z,33.09
2022-09-05T07:36:16.894Z,32.73
2022-09-05T07:39:02.416Z,31.69
2022-09-05T07:41:39.623Z,31.72
2022-09-05T07:44:30.870Z,31.32
2022-09-05T07:47:35.429Z,31.59
2022-09-05T07:52:24.925Z,30.40
2022-09-05T07:56:55.699Z,32.00
2022-09-05T07:57:08.067Z,31.53
2022-09-05T07:58:52.281Z,30.86
2022-09-05T08:01:22.739Z,30.24
2022-09-05T08:03:56.129Z,30.19
2022-09-05T08:07:20.202Z,31.07
2022-09-05T08:10:08.550Z,31.20
2022-09-05T08:12:27.928Z,30.50
2022-09-05T08:15:23.142Z,30.96
2022-09-05T08:18:05.863Z,28.83
2022-09-05T08:20:47.658Z,29.26
2022-09-05T08:23:42.665Z,30.04
2022-09-05T08:26:36.902Z,28.20
2022-09-05T08:29:31.085Z,28.94
2022-09-05T08:32:13.455Z,27.76
2022-09-05T08:35:13.216Z,27.32
2022-09-05T08:37:43.082Z,27.24
2022-09-05T08:40:32.067Z,27.84
2022-09-05T08:45:49.074Z,27.24
2022-09-05T08:46:45.726Z,26.55
2022-09-05T08:49:37.906Z,26.32
2022-09-05T08:52:26.550Z,26.96
2022-09-05T08:55:37.315Z,27.37
2022-09-05T08:58:47.231Z,28.29
2022-09-05T09:01:28.973Z,27.42
2022-09-05T09:04:17.151Z,27.49
2022-09-05T09:07:51.391Z,27.56
2022-09-05T09:10:38.588Z,28.25
2022-09-05T09:13:21.748Z,28.95
2022-09-05T09:15:57.512Z,29.29
2022-09-05T09:18:48.375Z,28.51
2022-09-05T09:21:31.393Z,28.82
2022-09-05T09:24:17.838Z,27.95
2022-09-05T09:27:17.073Z,27.16
2022-09-05T09:29:54.120Z,27.77
2022-09-05T09:32:26.689Z,26.84
2022-09-05T09:35:11.715Z,26.60
2022-09-05T09:38:34.378Z,26.66
2022-09-05T09:41:25.547Z,28.02
2022-09-05T09:45:22.467Z,27.92
2022-09-05T09:48:08.329Z,26.69
2022-09-05T09:51:13.713Z,26.71
2022-09-05T09:53:49.725Z,26.48
2022-09-05T09:56:50.551Z,26.85
2022-09-05T09:59:54.846Z,27.30
2022-09-05T10:07:47.927Z,27.17
2022-09-05T10:10:49.221Z,27.15
2022-09-05T10:10:51.119Z,26.69
2022-09-05T10:13:10.168Z,27.36
2022-09-05T10:16:14.323Z,27.27
2022-09-05T10:18:55.875Z,27.41
2022-09-05T10:21:37.865Z,26.98
2022-09-05T10:24:22.875Z,26.89
2022-09-05T10:28:00.745Z,26.91
2022-09-05T10:33:03.787Z,27.90
2022-09-05T10:35:13.082Z,27.07
2022-09-05T10:37:05.971Z,26.62
2022-09-05T10:39:38.168Z,26.78
2022-09-05T10:42:35.188Z,27.62
2022-09-05T10:45:33.450Z,26.85
2022-09-05T10:48:34.808Z,26.40
2022-09-05T10:51:29.691Z,26.54
2022-09-05T10:54:29.371Z,26.35
2022-09-05T10:57:21.360Z,26.02
2022-09-05T11:02:16.333Z,25.71
2022-09-05T11:02:56.173Z,25.13
2022-09-05T11:05:39.970Z,24.74
2022-09-05T11:08:31.289Z,24.77
2022-09-05T11:11:28.467Z,25.13
2022-09-05T11:14:26.519Z,26.09
2022-09-05T11:17:10.194Z,25.72
2022-09-05T11:19:53.590Z,25.39
2022-09-05T11:22:24.564Z,24.96
2022-09-05T11:24:59.419Z,24.62
2022-09-05T11:27:43.756Z,24.77
2022-09-05T11:30:30.009Z,24.89
2022-09-05T11:39:49.151Z,24.62
2022-09-05T11:39:53.892Z,24.09
2022-09-05T11:40:28.327Z,23.49
2022-09-05T11:42:51.344Z,23.23
2022-09-05T11:45:59.261Z,23.63
2022-09-05T11:49:01.864Z,23.74
2022-09-05T11:51:37.101Z,24.06
2022-09-05T11:54:31.851Z,24.18
2022-09-05T11:57:32.431Z,24.73
2022-09-05T12:00:31.123Z,25.02
2022-09-05T12:03:59.280Z,25.07
2022-09-05T12:07:15.566Z,25.22
2022-09-05T12:10:04.190Z,24.25
2022-09-05T12:13:21.722Z,24.36
2022-09-05T12:16:08.234Z,24.26
2022-09-05T12:18:54.118Z,24.22
2022-09-05T12:21:44.665Z,24.34
2022-09-05T12:25:24.407Z,23.98
2022-09-05T12:27:46.133Z,24.01
2022-09-05T12:30:23.075Z,24.13
2022-09-05T12:36:01.690Z,24.37
2022-09-05T12:40:54.115Z,24.25
2022-09-05T12:41:32.600Z,24.15
2022-09-05T12:44:37.011Z,23.32
2022-09-05T12:46:17.607Z,23.19
2022-09-05T12:49:07.203Z,22.99
2022-09-05T12:51:46.295Z,22.85
2022-09-05T12:59:38.840Z,23.12
2022-09-05T13:03:12.212Z,22.87
2022-09-05T13:03:28.820Z,23.09
2022-09-05T13:06:08.545Z,23.18
2022-09-05T13:08:52.825Z,23.34
2022-09-05T13:14:46.088Z,23.41
2022-09-05T13:14:58.638Z,23.06
2022-09-05T13:17:15.698Z,23.23
2022-09-05T13:19:51.283Z,23.47
2022-09-05T13:22:24.386Z,23.50
2022-09-05T13:25:05.622Z,23.71
2022-09-05T13:27:41.421Z,23.62
2022-09-05T13:34:29.447Z,23.41
2022-09-05T13:38:19.330Z,23.17
2022-09-05T13:38:19.873Z,23.00
2022-09-05T13:39:12.919Z,22.56
2022-09-05T13:41:59.456Z,22.79
2022-09-05T13:44:28.250Z,22.72
2022-09-05T13:47:38.524Z,22.55
2022-09-05T13:50:35.523Z,22.84
2022-09-05T13:53:04.914Z,22.65
2022-09-05T13:55:46.013Z,23.06
2022-09-05T13:58:51.060Z,23.01
2022-09-05T14:08:18.062Z,23.10
2022-09-05T14:11:13.701Z,22.93
2022-09-05T14:14:13.278Z,22.97
2022-09-05T14:20:27.657Z,22.70
2022-09-05T14:23:09.133Z,22.69
2022-09-05T14:25:44.247Z,22.47
2022-09-05T14:28:27.377Z,22.42
2022-09-05T14:36:10.977Z,22.38
2022-09-05T14:37:48.280Z,22.51
2022-09-05T14:38:07.914Z,22.44
2022-09-05T14:40:49.915Z,22.42
2022-09-05T14:44:19.418Z,22.08
2022-09-05T14:47:35.519Z,22.15
2022-09-05T14:50:31.419Z,22.11
2022-09-05T14:57:13.601Z,22.57
2022-09-05T15:02:43.267Z,22.43
2022-09-05T15:02:53.744Z,22.76
2022-09-05T15:04:56.680Z,22.10
2022-09-05T15:07:39.520Z,22.09
2022-09-05T15:12:18.008Z,22.30
2022-09-05T15:13:11.496Z,22.09
2022-09-05T15:16:02.075Z,22.07
2022-09-05T15:18:48.208Z,22.09
2022-09-05T15:21:33.155Z,21.79
2022-09-05T15:24:19.251Z,21.76
2022-09-05T15:26:53.555Z,21.65
2022-09-05T15:29:36.123Z,21.37
2022-09-05T15:32:21.458Z,21.54
2022-09-05T15:34:51.203Z,21.48
2022-09-05T15:37:40.777Z,21.43
2022-09-05T15:40:22.590Z,21.61
2022-09-05T15:43:00.806Z,21.35
2022-09-05T15:45:37.850Z,21.30
2022-09-05T15:48:26.557Z,21.29
2022-09-05T15:51:17.343Z,21.25
2022-09-05T15:53:44.552Z,21.35
2022-09-05T15:56:11.419Z,21.60
2022-09-05T15:58:56.823Z,21.42
2022-09-05T16:01:59.143Z,21.57
2022-09-05T16:10:31.698Z,21.30
2022-09-05T16:10:34.369Z,21.16
2022-09-05T16:10:40.244Z,21.20
2022-09-05T16:13:17.396Z,21.18
2022-09-05T16:20:06.556Z,21.13
2022-09-05T16:23:28.259Z,21.07
2022-09-05T16:23:28.530Z,21.10
2022-09-05T16:24:35.012Z,21.07
2022-09-05T16:27:54.176Z,21.13
2022-09-05T16:30:31.880Z,20.97
2022-09-05T16:33:30.887Z,20.71
2022-09-05T16:36:16.270Z,20.70
2022-09-05T16:38:59.822Z,20.40
2022-09-05T16:41:55.060Z,20.39
2022-09-05T16:44:43.693Z,20.31
2022-09-05T16:47:43.164Z,20.11
2022-09-05T16:50:34.585Z,20.16
2022-09-05T16:53:30.431Z,20.22
2022-09-05T16:56:07.203Z,20.22
2022-09-05T16:58:44.280Z,20.17
2022-09-05T17:01:31.993Z,20.12
2022-09-05T17:04:15.859Z,19.99
2022-09-05T17:07:02.427Z,19.97
2022-09-05T17:09:49.519Z,19.76
2022-09-05T17:12:25.317Z,19.76
2022-09-05T17:15:01.068Z,19.69
2022-09-05T17:18:20.119Z,19.74
2022-09-05T17:20:38.342Z,19.60
2022-09-05T17:27:19.957Z,19.54
2022-09-05T17:29:25.566Z,19.41
2022-09-05T17:29:48.907Z,19.43
2022-09-05T17:32:04.491Z,19.23
2022-09-05T17:35:16.867Z,19.38
2022-09-05T17:38:16.232Z,19.13
2022-09-05T17:40:59.562Z,19.00
2022-09-05T17:43:33.564Z,19.02
2022-09-05T17:46:27.399Z,18.88
2022-09-05T17:49:19.528Z,18.81
2022-09-05T17:51:53.265Z,18.87
2022-09-05T17:54:33.632Z,18.73
2022-09-05T17:57:28.458Z,18.59
2022-09-05T17:59:59.241Z,18.58
2022-09-05T18:02:33.395Z,18.65
2022-09-05T18:05:01.999Z,18.63
2022-09-05T18:07:29.365Z,18.51
2022-09-05T18:10:15.306Z,18.48
2022-09-05T18:15:38.632Z,18.39
2022-09-05T18:18:39.838Z,18.42
2022-09-05T18:21:12.606Z,18.36
2022-09-05T18:24:02.420Z,18.27
2022-09-05T18:26:38.348Z,18.22
2022-09-05T18:29:31.051Z,18.25
2022-09-05T18:32:11.899Z,18.26
2022-09-05T18:34:41.494Z,18.20
2022-09-05T18:37:39.087Z,18.17
2022-09-05T18:40:16.639Z,18.34
2022-09-05T18:43:09.870Z,18.10
2022-09-05T18:45:52.775Z,18.15
2022-09-05T18:48:33.794Z,18.00
2022-09-05T18:51:15.392Z,17.93
2022-09-05T18:53:47.627Z,18.01
2022-09-05T18:56:39.437Z,17.87
2022-09-05T18:59:34.512Z,17.68
2022-09-05T19:02:26.626Z,17.60
2022-09-05T19:05:40.908Z,17.53
2022-09-05T19:08:38.528Z,17.34
2022-09-05T19:11:26.911Z,17.29
2022-09-05T19:14:25.720Z,17.23
2022-09-05T19:16:47.893Z,17.14
2022-09-05T19:19:24.394Z,17.17
2022-09-05T19:22:37.283Z,17.10
2022-09-05T19:24:46.441Z,16.87
2022-09-05T19:29:00.035Z,16.93
2022-09-05T19:36:53.189Z,16.76
2022-09-05T19:36:58.280Z,16.97
2022-09-05T19:36:58.906Z,16.83
2022-09-05T19:40:41.818Z,16.54
2022-09-05T19:47:25.998Z,16.32
2022-09-05T19:47:39.305Z,16.38
2022-09-05T19:48:07.426Z,16.32
2022-09-05T19:50:29.926Z,16.12
2022-09-05T19:53:06.530Z,15.92
2022-09-05T19:55:37.602Z,16.03
2022-09-05T19:58:21.063Z,16.04
2022-09-05T20:01:02.892Z,16.00
2022-09-05T20:03:38.804Z,15.85
2022-09-05T20:06:28.816Z,15.76
2022-09-05T20:09:41.354Z,15.64
2022-09-05T20:12:29.248Z,15.51
2022-09-05T20:14:57.058Z,15.31
2022-09-05T20:17:34.536Z,15.46
2022-09-05T20:20:16.882Z,15.48
2022-09-05T20:22:50.888Z,15.33
2022-09-05T20:25:40.677Z,15.16
2022-09-05T20:28:13.315Z,14.92
2022-09-05T20:30:47.863Z,15.08
2022-09-05T20:33:27.257Z,14.88
2022-09-05T20:43:08.669Z,14.71
2022-09-05T20:43:15.405Z,14.61
2022-09-05T20:43:17.840Z,14.75
2022-09-05T20:45:03.472Z,14.68
2022-09-05T20:54:07.680Z,14.75
2022-09-05T20:54:17.840Z,14.45
2022-09-05T20:54:22.767Z,14.60
2022-09-05T20:56:22.724Z,14.49
2022-09-05T20:58:51.463Z,14.20
2022-09-05T21:01:23.548Z,14.24
2022-09-05T21:04:03.557Z,14.35
2022-09-05T21:06:36.015Z,14.24
2022-09-05T21:09:25.380Z,14.33
2022-09-05T21:11:56.082Z,14.25
2022-09-05T21:14:26.648Z,14.27
2022-09-05T21:17:15.521Z,14.22
2022-09-05T21:19:54.012Z,14.23
2022-09-05T21:22:21.312Z,14.07
2022-09-05T21:25:07.308Z,13.91
2022-09-05T21:27:34.385Z,14.03
2022-09-05T21:30:32.008Z,13.93
2022-09-05T21:33:25.937Z,13.90
2022-09-05T21:36:02.130Z,13.77
2022-09-05T21:38:33.932Z,13.80
2022-09-05T21:41:05.245Z,13.97
2022-09-05T21:47:37.539Z,13.77
2022-09-05T21:47:46.945Z,13.76
2022-09-05T21:49:11.272Z,13.55
2022-09-05T21:51:38.765Z,13.66
2022-09-05T21:59:19.802Z,13.44
2022-09-05T21:59:22.193Z,13.67
2022-09-05T21:59:55.200Z,13.45
2022-09-05T22:02:23.763Z,13.57
2022-09-05T22:05:02.772Z,13.39
2022-09-05T22:07:34.539Z,13.40
2022-09-05T22:10:06.722Z,13.34
2022-09-05T22:12:36.070Z,13.31
2022-09-05T22:15:28.547Z,13.24
2022-09-05T22:18:07.670Z,13.21
2022-09-05T22:20:51.809Z,13.30
2022-09-05T22:23:38.704Z,13.29
2022-09-05T22:26:06.380Z,13.20
2022-09-05T22:28:36.082Z,13.21
2022-09-05T22:31:07.578Z,13.07
2022-09-05T22:33:35.290Z,12.97
2022-09-05T22:36:02.622Z,13.23
2022-09-05T22:38:29.776Z,13.13
2022-09-05T22:40:57.663Z,13.07
2022-09-05T22:43:25.373Z,13.04
2022-09-05T22:45:59.237Z,13.00
2022-09-05T22:48:26.465Z,12.65
2022-09-05T22:50:53.562Z,12.88
2022-09-05T22:53:20.663Z,12.76
2022-09-05T22:55:58.924Z,12.88
2022-09-05T22:58:26.812Z,12.92
2022-09-05T23:00:54.010Z,12.82
2022-09-05T23:03:21.077Z,12.88
2022-09-05T23:05:48.510Z,12.74
2022-09-05T23:08:15.503Z,12.79
2022-09-05T23:10:42.535Z,12.59
2022-09-05T23:13:11.249Z,12.69
2022-09-05T23:15:38.548Z,12.51
2022-09-05T23:18:06.029Z,12.55
2022-09-05T23:20:34.168Z,12.54
2022-09-05T23:23:06.614Z,12.54
2022-09-05T23:25:35.548Z,12.50
2022-09-05T23:28:09.823Z,12.57
2022-09-05T23:30:37.775Z,12.37
2022-09-05T23:33:09.378Z,12.48
2022-09-05T23:35:37.439Z,12.35
2022-09-05T23:38:11.749Z,12.27
2022-09-05T23:40:39.222Z,12.16
2022-09-05T23:43:06.702Z,12.25
2022-09-05T23:45:34.077Z,12.45
2022-09-05T23:48:01.140Z,12.41
2022-09-05T23:50:28.765Z,12.33
2022-09-05T23:52:55.761Z,12.28
2022-09-05T23:55:23.479Z,12.17
2022-09-05T23:57:56.283Z,12.16
